Schedule -- Season 73
Date/Time Away team Status Home team
8/6/2026 2:00:00 PM 13136 SpawnRae_ 7925 HR Basket Club SC
8/8/2026 2:00:00 PM HR Basket Club Red Crabs
8/11/2026 2:00:00 PM 8 Razorback BJJ 4 HR Basket Club
8/12/2026 2:00:00 PM 7841 Kara-kartal 7903 HR Basket Club BBM
8/13/2026 2:00:00 PM 670 HR Basket Club 785 Club Baloncesto Cebada C
8/15/2026 2:00:00 PM 2 HR Basket Club 6 C.B Plicationix
8/18/2026 2:00:00 PM 7 Cb Armentia 2 HR Basket Club
8/19/2026 2:00:00 PM 7657 Porto Alegre Utopians 7544 HR Basket Club BBM
8/20/2026 1:00:00 PM 7371 HR Basket Club 2419 Carámbanos SC
8/22/2026 2:00:00 PM 2 HR Basket Club 3 Usted Está Aquí TV
8/25/2026 2:00:00 PM 1 Ansel_ 2 HR Basket Club
8/26/2026 11:00:00 AM 7252 HR Basket Club 7673 Pacers Bulls II BBM
8/27/2026 2:00:00 PM 7106 HR Basket Club 3775 Vilamagore BC SC
8/29/2026 2:00:00 PM 7 Cuernavilla BC 1 HR Basket Club
9/1/2026 2:00:00 PM 1 HR Basket Club 3 C.B. Real Hesperides
9/2/2026 2:00:00 PM 8033 Kerzu Dunkers 7175 HR Basket Club BBM
9/3/2026 2:00:00 PM 8824 Calatrava 7041 HR Basket Club SC
9/5/2026 2:00:00 PM 1 Kbmg 1 HR Basket Club
9/8/2026 2:00:00 PM 1 HR Basket Club 7 Potrillos
9/9/2026 2:00:00 PM 7040 Grugliasco Loosers 7041 HR Basket Club BBM
9/12/2026 2:00:00 PM 8 SFERIC TERRASSA 1 HR Basket Club
9/15/2026 2:00:00 PM 1 HR Basket Club 2 Palma Grijander
9/19/2026 2:00:00 PM 3 C.ALATRISTE 1 HR Basket Club
9/23/2026 2:00:00 PM Big 8 Great 8
9/26/2026 2:00:00 PM 1 HR Basket Club 5 Arkania Fire TV
9/29/2026 2:00:00 PM 6 Esparta Basket 1 HR Basket Club
10/3/2026 2:00:00 PM 3 Red Crabs 1 HR Basket Club
10/6/2026 2:00:00 PM 1 HR Basket Club 8 Razorback BJJ
10/10/2026 2:00:00 PM 5 C.B Plicationix 1 HR Basket Club
10/13/2026 2:00:00 PM 1 HR Basket Club 6 Cb Armentia
10/17/2026 2:00:00 PM 4 Usted Está Aquí 1 HR Basket Club TV
10/20/2026 2:00:00 PM 1 HR Basket Club 2 Ansel_
10/24/2026 2:00:00 PM 1 HR Basket Club 7 Cuernavilla BC
SC: Scrimmage C: Cup TV: Televised BBM: BuzzerBeater Madness
Advertisement